createdAt,value
2019-04-06T00:02:23.767Z,88.60
2019-04-06T00:04:52.811Z,89.10
2019-04-06T00:07:21.425Z,89.30
2019-04-06T00:09:50.055Z,89.30
2019-04-06T00:12:18.606Z,89.40
2019-04-06T00:14:47.154Z,89.10
2019-04-06T00:17:15.714Z,89.20
2019-04-06T00:19:44.254Z,88.60
2019-04-06T00:22:32.073Z,88.80
2019-04-06T00:25:00.577Z,88.60
2019-04-06T00:27:29.057Z,88.30
2019-04-06T00:29:57.594Z,87.80
2019-04-06T00:32:27.817Z,86.80
2019-04-06T00:34:56.350Z,87.70
2019-04-06T00:37:24.901Z,88.00
2019-04-06T00:39:53.473Z,88.00
2019-04-06T00:42:22.032Z,88.40
2019-04-06T00:44:50.600Z,87.50
2019-04-06T00:47:19.141Z,86.90
2019-04-06T00:49:47.702Z,87.10
2019-04-06T00:52:16.170Z,87.70
2019-04-06T00:54:44.712Z,86.90
2019-04-06T00:57:13.272Z,87.30
2019-04-06T00:59:41.756Z,87.60
2019-04-06T01:02:10.689Z,87.50
2019-04-06T01:04:39.234Z,87.80
2019-04-06T01:07:07.801Z,87.70
2019-04-06T01:09:41.123Z,87.60
2019-04-06T01:12:09.657Z,87.30
2019-04-06T01:14:38.164Z,88.20
2019-04-06T01:17:06.788Z,88.30
2019-04-06T01:19:35.369Z,88.20
2019-04-06T01:22:03.977Z,88.20
2019-04-06T01:24:32.549Z,87.60
2019-04-06T01:27:01.198Z,87.30
2019-04-06T01:29:29.772Z,87.80
2019-04-06T01:31:58.332Z,87.30
2019-04-06T01:34:26.877Z,88.20
2019-04-06T01:36:55.442Z,88.60
2019-04-06T01:39:23.977Z,88.80
2019-04-06T01:41:52.488Z,89.20
2019-04-06T01:44:21.115Z,89.20
2019-04-06T01:46:50.641Z,89.00
2019-04-06T01:49:19.197Z,88.80
2019-04-06T01:51:47.688Z,89.00
2019-04-06T01:54:16.248Z,89.10
2019-04-06T01:56:44.789Z,89.00
2019-04-06T01:59:32.597Z,89.20
2019-04-06T02:02:02.714Z,89.50
2019-04-06T02:04:31.208Z,88.50
2019-04-06T02:06:59.758Z,89.80
2019-04-06T02:09:28.346Z,90.00
2019-04-06T02:11:56.880Z,90.00
2019-04-06T02:14:25.344Z,90.40
2019-04-06T02:16:53.835Z,90.30
2019-04-06T02:19:22.378Z,90.30
2019-04-06T02:21:50.830Z,90.40
2019-04-06T02:24:19.314Z,90.20
2019-04-06T02:26:47.870Z,89.90
2019-04-06T02:29:16.319Z,90.10
2019-04-06T02:34:54.869Z,90.00
2019-04-06T02:37:24.979Z,90.50
2019-04-06T02:39:55.088Z,90.50
2019-04-06T02:42:31.187Z,90.30
2019-04-06T02:44:59.765Z,90.00
2019-04-06T02:47:28.223Z,90.30
2019-04-06T02:49:56.731Z,90.10
2019-04-06T02:52:25.228Z,90.30
2019-04-06T02:54:53.767Z,90.50
2019-04-06T02:57:22.259Z,90.50
2019-04-06T02:59:50.806Z,90.60
2019-04-06T03:02:19.518Z,90.50
2019-04-06T03:04:48.066Z,91.00
2019-04-06T03:07:16.678Z,90.70
2019-04-06T03:09:48.152Z,90.50
2019-04-06T03:12:16.618Z,90.40
2019-04-06T03:14:45.151Z,90.40
2019-04-06T03:17:13.677Z,91.00
2019-04-06T03:19:42.211Z,91.30
2019-04-06T03:22:10.779Z,91.60
2019-04-06T03:24:39.437Z,91.80
2019-04-06T03:27:07.935Z,91.80
2019-04-06T03:29:36.559Z,91.50
2019-04-06T03:32:05.085Z,91.90
2019-04-06T03:34:33.638Z,91.90
2019-04-06T03:37:02.183Z,92.00
2019-04-06T03:39:30.713Z,91.90
2019-04-06T03:41:59.470Z,92.20
2019-04-06T03:44:28.003Z,92.30
2019-04-06T03:46:56.627Z,92.80
2019-04-06T03:49:26.986Z,92.70
2019-04-06T03:51:55.438Z,92.40
2019-04-06T03:54:24.042Z,92.30
2019-04-06T03:56:52.479Z,92.20
2019-04-06T03:59:20.934Z,91.90
2019-04-06T04:01:50.070Z,91.90
2019-04-06T04:04:18.585Z,91.90
2019-04-06T04:06:47.042Z,91.90
2019-04-06T04:09:15.479Z,91.80
2019-04-06T04:11:43.926Z,91.70
2019-04-06T04:14:12.364Z,91.70
2019-04-06T04:16:40.817Z,91.50
2019-04-06T04:19:09.247Z,91.50
2019-04-06T04:21:37.709Z,91.30
2019-04-06T04:24:06.131Z,91.20
2019-04-06T04:26:34.575Z,91.30
2019-04-06T04:29:03.090Z,91.20
2019-04-06T04:31:31.953Z,91.30
2019-04-06T04:34:00.565Z,91.50
2019-04-06T04:36:29.062Z,91.30
2019-04-06T04:38:57.516Z,91.30
2019-04-06T04:41:25.943Z,91.50
2019-04-06T04:43:54.395Z,91.60
2019-04-06T04:46:22.968Z,91.80
2019-04-06T04:48:51.671Z,91.80
2019-04-06T04:51:20.138Z,92.20
2019-04-06T04:53:48.586Z,91.70
2019-04-06T04:56:17.112Z,91.80
2019-04-06T04:58:45.558Z,91.70
2019-04-06T05:01:14.196Z,91.80
2019-04-06T05:03:45.880Z,91.80
2019-04-06T05:06:14.668Z,91.60
2019-04-06T05:08:43.262Z,91.70
2019-04-06T05:11:11.700Z,91.80
2019-04-06T05:13:40.140Z,91.70
2019-04-06T05:16:13.151Z,91.80
2019-04-06T05:18:42.762Z,92.10
2019-04-06T05:21:11.947Z,92.30
2019-04-06T05:23:40.392Z,92.20
2019-04-06T05:26:08.959Z,92.50
2019-04-06T05:28:37.399Z,92.80
2019-04-06T05:31:05.994Z,92.70
2019-04-06T05:33:34.504Z,92.70
2019-04-06T05:36:04.394Z,93.10
2019-04-06T05:38:32.873Z,93.30
2019-04-06T05:41:01.426Z,93.30
2019-04-06T05:43:29.873Z,93.50
2019-04-06T05:45:58.319Z,93.50
2019-04-06T05:48:32.677Z,93.20
2019-04-06T05:51:01.145Z,93.50
2019-04-06T05:53:29.570Z,93.50
2019-04-06T05:55:58.137Z,93.70
2019-04-06T05:58:26.635Z,93.50
2019-04-06T06:00:55.147Z,93.50
2019-04-06T06:03:23.610Z,93.50
2019-04-06T06:05:52.106Z,93.70
2019-04-06T06:08:20.565Z,93.90
2019-04-06T06:10:49.066Z,94.20
2019-04-06T06:13:17.613Z,94.50
2019-04-06T06:15:46.104Z,94.60
2019-04-06T06:18:25.425Z,94.70
2019-04-06T06:20:44.860Z,94.50
2019-04-06T06:23:13.410Z,94.40
2019-04-06T06:25:41.898Z,94.10
2019-04-06T06:28:15.271Z,94.00
2019-04-06T06:30:40.513Z,94.00
2019-04-06T06:33:08.977Z,94.20
2019-04-06T06:35:37.461Z,94.50
2019-04-06T06:38:25.280Z,94.30
2019-04-06T06:40:53.735Z,94.10
2019-04-06T06:43:22.388Z,94.10
2019-04-06T06:45:50.890Z,94.20
2019-04-06T06:48:19.628Z,94.10
2019-04-06T06:50:48.153Z,93.90
2019-04-06T06:53:16.600Z,93.80
2019-04-06T06:55:45.136Z,93.80
2019-04-06T06:58:24.215Z,93.50
2019-04-06T07:00:44.198Z,93.30
2019-04-06T07:03:12.668Z,93.70
2019-04-06T07:05:42.165Z,93.50
2019-04-06T07:08:10.696Z,93.30
2019-04-06T07:10:39.141Z,93.20
2019-04-06T07:13:07.601Z,93.20
2019-04-06T07:15:36.058Z,93.30
2019-04-06T07:18:04.519Z,93.20
2019-04-06T07:20:33.026Z,93.20
2019-04-06T07:23:01.478Z,92.90
2019-04-06T07:25:30.200Z,93.00
2019-04-06T07:27:58.944Z,92.90
2019-04-06T07:30:27.440Z,92.90
2019-04-06T07:32:55.882Z,92.80
2019-04-06T07:35:24.319Z,92.90
2019-04-06T07:37:53.041Z,92.60
2019-04-06T07:40:21.569Z,92.00
2019-04-06T07:42:50.039Z,92.20
2019-04-06T07:45:18.730Z,91.70
2019-04-06T07:47:47.365Z,91.40
2019-04-06T07:50:15.904Z,91.80
2019-04-06T07:52:44.336Z,91.80
2019-04-06T07:55:12.875Z,91.70
2019-04-06T07:57:41.631Z,91.40
2019-04-06T08:00:11.141Z,91.20
2019-04-06T08:02:39.646Z,91.10
2019-04-06T08:05:08.449Z,90.90
2019-04-06T08:07:38.723Z,91.20
2019-04-06T08:10:07.724Z,90.90
2019-04-06T08:12:36.471Z,90.80
2019-04-06T08:15:06.870Z,90.60
2019-04-06T08:17:35.393Z,90.80
2019-04-06T08:20:14.474Z,90.30
2019-04-06T08:22:42.938Z,89.90
2019-04-06T08:25:11.545Z,89.10
2019-04-06T08:27:39.974Z,88.40
2019-04-06T08:30:10.110Z,88.70
2019-04-06T08:32:38.898Z,87.60
2019-04-06T08:35:08.282Z,85.70
2019-04-06T08:37:36.724Z,86.10
2019-04-06T08:40:08.544Z,86.90
2019-04-06T08:42:36.990Z,87.10
2019-04-06T08:45:06.898Z,86.60
2019-04-06T08:47:35.345Z,86.70
2019-04-06T08:50:07.519Z,86.90
2019-04-06T08:52:36.044Z,87.00
2019-04-06T08:55:06.520Z,86.30
2019-04-06T08:57:35.031Z,86.90
2019-04-06T09:00:04.922Z,84.70
2019-04-06T09:02:33.652Z,85.10
2019-04-06T09:05:02.102Z,85.40
2019-04-06T09:07:30.528Z,84.50
2019-04-06T09:09:59.005Z,85.10
2019-04-06T09:12:27.434Z,84.50
2019-04-06T09:14:55.880Z,84.90
2019-04-06T09:17:24.443Z,85.50
2019-04-06T09:19:53.039Z,84.60
2019-04-06T09:22:23.420Z,85.30
2019-04-06T09:24:51.842Z,85.50
2019-04-06T09:27:20.360Z,84.70
2019-04-06T09:29:48.801Z,84.10
2019-04-06T09:32:23.197Z,82.10
2019-04-06T09:34:51.845Z,82.10
2019-04-06T09:37:20.626Z,81.90
2019-04-06T09:39:49.160Z,82.40
2019-04-06T09:42:17.610Z,82.10
2019-04-06T09:44:53.108Z,81.80
2019-04-06T09:47:23.186Z,80.40
2019-04-06T09:50:02.270Z,80.40
2019-04-06T09:52:32.734Z,81.30
2019-04-06T09:55:14.834Z,81.50
2019-04-06T09:57:44.935Z,81.20
2019-04-06T10:00:25.201Z,80.70
2019-04-06T10:02:55.594Z,77.70
2019-04-06T10:05:26.115Z,78.70
2019-04-06T10:08:05.437Z,77.90
2019-04-06T10:10:38.234Z,78.60
2019-04-06T10:13:17.600Z,78.40
2019-04-06T10:15:56.928Z,77.40
2019-04-06T10:18:29.784Z,76.90
2019-04-06T10:21:11.923Z,75.60
2019-04-06T10:23:44.416Z,75.50
2019-04-06T10:26:20.535Z,74.20
2019-04-06T10:28:53.547Z,74.30
2019-04-06T10:31:40.148Z,74.30
2019-04-06T10:34:27.757Z,72.80
2019-04-06T10:37:03.824Z,72.10
2019-04-06T10:39:34.053Z,71.50
2019-04-06T10:42:16.133Z,70.80
2019-04-06T10:44:49.213Z,70.90
2019-04-06T10:47:37.851Z,69.60
2019-04-06T10:50:17.026Z,69.60
2019-04-06T10:52:56.373Z,70.30
2019-04-06T10:55:26.523Z,67.50
2019-04-06T10:57:56.677Z,68.10
2019-04-06T11:00:29.981Z,68.20
2019-04-06T11:03:02.797Z,67.50
2019-04-06T11:05:35.646Z,67.00
2019-04-06T11:08:05.999Z,67.50
2019-04-06T11:10:36.130Z,67.30
2019-04-06T11:13:22.412Z,65.70
2019-04-06T11:15:52.605Z,67.60
2019-04-06T11:18:28.869Z,66.20
2019-04-06T11:21:15.582Z,65.80
2019-04-06T11:23:48.638Z,64.60
2019-04-06T11:26:31.010Z,66.40
2019-04-06T11:29:07.349Z,64.60
2019-04-06T11:31:40.406Z,64.40
2019-04-06T11:34:13.148Z,65.50
2019-04-06T11:36:46.408Z,63.40
2019-04-06T11:39:16.549Z,63.00
2019-04-06T11:41:46.942Z,63.80
2019-04-06T11:44:26.079Z,65.60
2019-04-06T11:47:19.861Z,64.70
2019-04-06T11:49:52.738Z,63.60
2019-04-06T11:52:39.395Z,63.70
2019-04-06T11:55:15.445Z,63.70
2019-04-06T11:58:03.717Z,63.00
2019-04-06T12:00:39.802Z,62.90
2019-04-06T12:03:22.174Z,63.70
2019-04-06T12:05:57.810Z,64.40
2019-04-06T12:08:37.010Z,65.90
2019-04-06T12:11:13.285Z,65.10
2019-04-06T12:13:43.393Z,63.30
2019-04-06T12:16:22.811Z,59.90
2019-04-06T12:19:11.248Z,60.00
2019-04-06T12:21:53.138Z,59.30
2019-04-06T12:24:35.827Z,59.60
2019-04-06T12:27:08.785Z,58.20
2019-04-06T12:29:41.289Z,58.70
2019-04-06T12:32:11.388Z,57.00
2019-04-06T12:34:53.240Z,56.80
2019-04-06T12:37:23.404Z,55.90
2019-04-06T12:39:56.598Z,56.70
2019-04-06T12:42:27.065Z,56.30
2019-04-06T12:44:57.143Z,56.60
2019-04-06T12:47:29.856Z,54.60
2019-04-06T12:50:02.952Z,54.80
2019-04-06T12:52:33.056Z,55.20
2019-04-06T12:55:21.432Z,54.70
2019-04-06T12:57:51.702Z,53.70
2019-04-06T13:00:30.978Z,54.50
2019-04-06T13:03:06.922Z,54.30
2019-04-06T13:05:55.080Z,55.30
2019-04-06T13:08:28.177Z,54.70
2019-04-06T13:10:58.348Z,54.40
2019-04-06T13:13:30.854Z,53.80
2019-04-06T13:16:15.995Z,53.70
2019-04-06T13:19:01.059Z,53.30
2019-04-06T13:21:31.140Z,52.20
2019-04-06T13:24:19.342Z,52.50
2019-04-06T13:26:55.274Z,53.10
2019-04-06T13:29:31.132Z,52.80
2019-04-06T13:32:04.065Z,52.30
2019-04-06T13:34:52.572Z,52.30
2019-04-06T13:37:26.575Z,52.20
2019-04-06T13:40:02.432Z,50.30
2019-04-06T13:42:38.312Z,50.90
2019-04-06T13:45:21.417Z,51.00
2019-04-06T13:47:54.443Z,51.20
2019-04-06T13:50:30.642Z,50.40
2019-04-06T13:53:09.549Z,49.30
2019-04-06T13:55:45.649Z,49.30
2019-04-06T13:58:32.080Z,49.20
2019-04-06T14:01:14.797Z,49.10
2019-04-06T14:03:52.938Z,49.00
2019-04-06T14:06:32.578Z,48.80
2019-04-06T14:09:03.127Z,49.00
2019-04-06T14:11:42.538Z,48.90
2019-04-06T14:14:18.699Z,48.20
2019-04-06T14:17:03.859Z,47.90
2019-04-06T14:19:36.485Z,47.40
2019-04-06T14:22:18.947Z,48.30
2019-04-06T14:24:49.374Z,48.50
2019-04-06T14:27:22.573Z,48.00
2019-04-06T14:29:55.821Z,48.00
2019-04-06T14:32:34.713Z,47.40
2019-04-06T14:35:07.452Z,47.10
2019-04-06T14:37:43.603Z,47.20
2019-04-06T14:40:16.609Z,46.30
2019-04-06T14:43:04.745Z,47.00
2019-04-06T14:45:37.829Z,46.90
2019-04-06T14:48:09.422Z,46.50
2019-04-06T14:50:48.639Z,46.30
2019-04-06T14:53:18.789Z,46.00
2019-04-06T14:55:51.352Z,45.20
2019-04-06T14:58:33.748Z,45.10
2019-04-06T15:01:10.058Z,43.50
2019-04-06T15:03:56.729Z,44.50
2019-04-06T15:06:43.007Z,43.40
2019-04-06T15:09:19.109Z,46.90
2019-04-06T15:11:51.919Z,48.60
2019-04-06T15:14:33.855Z,48.30
2019-04-06T15:17:07.328Z,50.50
2019-04-06T15:19:53.805Z,49.40
2019-04-06T15:22:32.987Z,50.10
2019-04-06T15:25:03.166Z,51.00
2019-04-06T15:27:33.257Z,50.20
2019-04-06T15:30:03.392Z,51.40
2019-04-06T15:32:33.502Z,52.20
2019-04-06T15:35:09.093Z,52.90
2019-04-06T15:37:48.036Z,50.80
2019-04-06T15:40:20.531Z,53.40
2019-04-06T15:42:53.329Z,52.10
2019-04-06T15:45:40.202Z,54.10
2019-04-06T15:48:19.601Z,51.70
2019-04-06T15:50:49.749Z,51.20
2019-04-06T15:53:19.850Z,53.50
2019-04-06T15:56:04.781Z,53.70
2019-04-06T15:58:43.939Z,54.30
2019-04-06T16:01:19.963Z,55.90
2019-04-06T16:03:56.774Z,56.30
2019-04-06T16:06:36.416Z,54.60
2019-04-06T16:09:08.863Z,54.10
2019-04-06T16:11:54.595Z,54.20
2019-04-06T16:14:25.258Z,52.60
2019-04-06T16:16:55.830Z,53.40
2019-04-06T16:19:26.177Z,53.80
2019-04-06T16:22:12.678Z,54.20
2019-04-06T16:25:11.921Z,55.30
2019-04-06T16:28:11.681Z,57.30
2019-04-06T16:31:14.673Z,55.00
2019-04-06T16:34:10.131Z,56.00
2019-04-06T16:37:08.472Z,59.70
2019-04-06T16:39:45.759Z,56.00
2019-04-06T16:42:37.217Z,54.90
2019-04-06T16:48:17.357Z,54.60
2019-04-06T16:51:05.196Z,54.20
2019-04-06T16:53:42.843Z,54.80
2019-04-06T16:56:27.724Z,54.40
2019-04-06T16:58:57.960Z,54.00
2019-04-06T17:01:32.225Z,53.50
2019-04-06T17:04:01.510Z,53.40
2019-04-06T17:06:47.990Z,53.80
2019-04-06T17:09:18.142Z,53.90
2019-04-06T17:11:51.012Z,53.70
2019-04-06T17:14:24.016Z,53.50
2019-04-06T17:17:10.613Z,55.70
2019-04-06T17:19:46.492Z,53.60
2019-04-06T17:22:28.537Z,56.70
2019-04-06T17:25:15.254Z,55.40
2019-04-06T17:27:45.356Z,57.40
2019-04-06T17:30:27.842Z,59.00
2019-04-06T17:33:00.868Z,57.10
2019-04-06T17:35:40.283Z,58.10
2019-04-06T17:38:10.454Z,56.20
2019-04-06T17:40:55.913Z,55.00
2019-04-06T17:43:26.463Z,58.70
2019-04-06T17:46:12.928Z,58.70
2019-04-06T17:48:45.780Z,56.90
2019-04-06T17:51:30.980Z,60.00
2019-04-06T17:54:06.822Z,59.60
2019-04-06T17:56:36.938Z,60.80
2019-04-06T17:59:24.755Z,58.70
2019-04-06T18:02:04.267Z,59.60
2019-04-06T18:04:43.631Z,58.30
2019-04-06T18:07:29.185Z,59.80
2019-04-06T18:10:02.469Z,60.10
2019-04-06T18:12:32.632Z,61.60
2019-04-06T18:15:01.145Z,60.30
2019-04-06T18:17:29.974Z,63.90
2019-04-06T18:19:58.517Z,61.10
2019-04-06T18:22:26.986Z,60.90
2019-04-06T18:24:55.759Z,61.90
2019-04-06T18:27:24.379Z,61.30
2019-04-06T18:29:52.827Z,59.20
2019-04-06T18:32:29.710Z,58.30
2019-04-06T18:34:58.175Z,60.00
2019-04-06T18:37:28.333Z,60.10
2019-04-06T18:40:01.546Z,62.10
2019-04-06T18:42:30.151Z,61.60
2019-04-06T18:44:58.754Z,63.10
2019-04-06T18:47:27.525Z,65.60
2019-04-06T18:49:56.214Z,62.00
2019-04-06T18:52:24.679Z,64.40
2019-04-06T18:54:53.132Z,65.60
2019-04-06T18:57:21.949Z,62.90
2019-04-06T18:59:50.521Z,65.30
2019-04-06T19:02:18.951Z,63.10
2019-04-06T19:04:47.645Z,64.40
2019-04-06T19:07:16.413Z,64.40
2019-04-06T19:09:45.158Z,60.20
2019-04-06T19:12:14.499Z,60.80
2019-04-06T19:14:43.119Z,61.70
2019-04-06T19:17:11.815Z,60.40
2019-04-06T19:19:40.786Z,63.00
2019-04-06T19:22:09.413Z,64.30
2019-04-06T19:24:37.939Z,63.60
2019-04-06T19:27:06.610Z,61.60
2019-04-06T19:29:35.117Z,64.90
2019-04-06T19:32:03.578Z,63.10
2019-04-06T19:34:32.562Z,64.20
2019-04-06T19:37:01.085Z,62.10
2019-04-06T19:39:29.539Z,64.10
2019-04-06T19:41:58.355Z,61.60
2019-04-06T19:44:27.207Z,61.70
2019-04-06T19:46:55.912Z,62.70
2019-04-06T19:49:24.373Z,66.00
2019-04-06T19:51:53.175Z,67.20
2019-04-06T19:54:22.117Z,66.00
2019-04-06T19:56:50.672Z,68.50
2019-04-06T19:59:19.522Z,65.80
2019-04-06T20:01:48.166Z,65.10
2019-04-06T20:04:16.815Z,68.40
2019-04-06T20:06:45.549Z,66.90
2019-04-06T20:09:14.198Z,69.20
2019-04-06T20:11:42.662Z,70.60
2019-04-06T20:14:11.119Z,68.30
2019-04-06T20:16:39.632Z,64.40
2019-04-06T20:19:08.065Z,67.00
2019-04-06T20:21:36.512Z,65.30
2019-04-06T20:24:07.173Z,67.30
2019-04-06T20:26:36.047Z,67.90
2019-04-06T20:29:04.750Z,67.70
2019-04-06T20:31:33.233Z,69.90
2019-04-06T20:34:01.908Z,69.00
2019-04-06T20:36:30.487Z,69.70
2019-04-06T20:38:59.316Z,68.20
2019-04-06T20:41:27.898Z,69.00
2019-04-06T20:43:56.389Z,71.60
2019-04-06T20:46:24.839Z,70.90
2019-04-06T20:48:53.830Z,71.10
2019-04-06T20:51:22.592Z,70.00
2019-04-06T20:53:51.066Z,70.70
2019-04-06T20:56:19.682Z,71.30
2019-04-06T20:58:48.150Z,71.90
2019-04-06T21:01:16.668Z,72.90
2019-04-06T21:03:45.385Z,71.60
2019-04-06T21:06:14.009Z,69.40
2019-04-06T21:08:42.537Z,70.10
2019-04-06T21:11:11.142Z,71.20
2019-04-06T21:13:39.601Z,69.00
2019-04-06T21:16:08.053Z,70.00
2019-04-06T21:18:36.690Z,71.40
2019-04-06T21:21:05.223Z,73.20
2019-04-06T21:23:33.879Z,72.10
2019-04-06T21:26:02.827Z,73.70
2019-04-06T21:28:31.409Z,73.00
2019-04-06T21:30:59.834Z,74.00
2019-04-06T21:33:28.623Z,74.10
2019-04-06T21:35:57.116Z,73.50
2019-04-06T21:38:25.551Z,73.50
2019-04-06T21:40:54.430Z,72.00
2019-04-06T21:43:23.416Z,72.40
2019-04-06T21:45:52.121Z,72.60
2019-04-06T21:48:21.237Z,73.10
2019-04-06T21:50:50.146Z,72.70
2019-04-06T21:53:19.601Z,74.60
2019-04-06T21:56:00.588Z,73.70
2019-04-06T21:58:18.801Z,73.70
2019-04-06T22:00:52.466Z,73.50
2019-04-06T22:03:21.212Z,74.70
2019-04-06T22:05:50.479Z,74.20
2019-04-06T22:08:19.280Z,75.50
2019-04-06T22:10:48.069Z,75.00
2019-04-06T22:13:16.664Z,76.40
2019-04-06T22:15:45.378Z,75.70
2019-04-06T22:18:13.808Z,75.90
2019-04-06T22:20:42.237Z,74.90
2019-04-06T22:23:10.681Z,75.60
2019-04-06T22:25:39.118Z,76.20
2019-04-06T22:28:07.566Z,76.40
2019-04-06T22:30:36.366Z,76.60
2019-04-06T22:33:04.890Z,76.20
2019-04-06T22:35:33.953Z,75.80
2019-04-06T22:38:03.107Z,75.80
2019-04-06T22:40:31.543Z,76.60
2019-04-06T22:42:59.991Z,75.50
2019-04-06T22:45:31.106Z,76.40
2019-04-06T22:47:59.783Z,76.00
2019-04-06T22:50:28.422Z,77.40
2019-04-06T22:52:57.328Z,77.10
2019-04-06T22:55:25.827Z,77.20
2019-04-06T22:57:54.260Z,77.60
2019-04-06T23:00:33.671Z,77.50
2019-04-06T23:03:03.780Z,77.50
2019-04-06T23:05:33.918Z,78.00
2019-04-06T23:08:02.355Z,77.30
2019-04-06T23:10:30.844Z,77.60
2019-04-06T23:12:59.658Z,76.80
2019-04-06T23:15:28.208Z,77.60
2019-04-06T23:17:58.076Z,77.50
2019-04-06T23:20:26.742Z,79.00
2019-04-06T23:22:55.515Z,77.30
2019-04-06T23:25:24.403Z,77.50
2019-04-06T23:27:53.346Z,78.20
2019-04-06T23:30:21.902Z,78.80
2019-04-06T23:32:50.667Z,78.60
2019-04-06T23:35:19.694Z,78.50
2019-04-06T23:37:48.290Z,77.90
2019-04-06T23:40:16.816Z,77.10
2019-04-06T23:42:45.852Z,77.50
2019-04-06T23:45:15.105Z,76.60
2019-04-06T23:47:43.657Z,78.30
2019-04-06T23:50:12.345Z,78.60
2019-04-06T23:52:41.016Z,78.60
2019-04-06T23:55:09.736Z,78.90
2019-04-06T23:57:38.418Z,77.70
